sensor_id;sensor_type;location;lat;lon;timestamp;P1;durP1;ratioP1;P2;durP2;ratioP2
53927;SDS011;39837;47.630;18.822;2024-03-08T00:02:29;16.05;;;11.90;;
53927;SDS011;39837;47.630;18.822;2024-03-08T00:05:14;13.30;;;11.23;;
53927;SDS011;39837;47.630;18.822;2024-03-08T00:07:58;15.67;;;11.63;;
53927;SDS011;39837;47.630;18.822;2024-03-08T00:10:43;14.15;;;11.60;;
53927;SDS011;39837;47.630;18.822;2024-03-08T00:13:28;12.18;;;10.98;;
53927;SDS011;39837;47.630;18.822;2024-03-08T00:16:12;15.10;;;11.68;;
53927;SDS011;39837;47.630;18.822;2024-03-08T00:18:56;15.35;;;11.20;;
53927;SDS011;39837;47.630;18.822;2024-03-08T00:21:40;15.25;;;11.27;;
53927;SDS011;39837;47.630;18.822;2024-03-08T00:24:25;14.05;;;12.45;;
53927;SDS011;39837;47.630;18.822;2024-03-08T00:27:09;15.07;;;12.88;;
53927;SDS011;39837;47.630;18.822;2024-03-08T00:29:54;13.55;;;12.13;;
53927;SDS011;39837;47.630;18.822;2024-03-08T00:32:39;15.13;;;12.65;;
53927;SDS011;39837;47.630;18.822;2024-03-08T00:35:23;16.17;;;12.15;;
53927;SDS011;39837;47.630;18.822;2024-03-08T00:38:07;15.77;;;12.43;;
53927;SDS011;39837;47.630;18.822;2024-03-08T00:40:51;14.60;;;12.50;;
53927;SDS011;39837;47.630;18.822;2024-03-08T00:43:35;13.57;;;11.73;;
53927;SDS011;39837;47.630;18.822;2024-03-08T00:46:18;22.52;;;12.73;;
53927;SDS011;39837;47.630;18.822;2024-03-08T00:49:03;12.95;;;11.57;;
53927;SDS011;39837;47.630;18.822;2024-03-08T00:51:47;13.95;;;12.00;;
53927;SDS011;39837;47.630;18.822;2024-03-08T00:54:31;14.10;;;12.50;;
53927;SDS011;39837;47.630;18.822;2024-03-08T00:57:16;16.58;;;12.43;;
53927;SDS011;39837;47.630;18.822;2024-03-08T01:00:02;13.63;;;12.00;;
53927;SDS011;39837;47.630;18.822;2024-03-08T01:02:47;18.95;;;12.65;;
53927;SDS011;39837;47.630;18.822;2024-03-08T01:05:31;16.50;;;13.13;;
53927;SDS011;39837;47.630;18.822;2024-03-08T01:08:15;15.55;;;12.30;;
53927;SDS011;39837;47.630;18.822;2024-03-08T01:11:00;17.10;;;13.18;;
53927;SDS011;39837;47.630;18.822;2024-03-08T01:13:43;17.83;;;12.75;;
53927;SDS011;39837;47.630;18.822;2024-03-08T01:16:30;20.02;;;14.18;;
53927;SDS011;39837;47.630;18.822;2024-03-08T01:22:01;21.48;;;14.13;;
53927;SDS011;39837;47.630;18.822;2024-03-08T01:24:45;23.23;;;13.75;;
53927;SDS011;39837;47.630;18.822;2024-03-08T01:27:29;17.95;;;13.93;;
53927;SDS011;39837;47.630;18.822;2024-03-08T01:30:13;17.13;;;14.35;;
53927;SDS011;39837;47.630;18.822;2024-03-08T01:33:00;16.73;;;13.80;;
53927;SDS011;39837;47.630;18.822;2024-03-08T01:35:44;21.50;;;14.88;;
53927;SDS011;39837;47.630;18.822;2024-03-08T01:38:28;20.65;;;15.23;;
53927;SDS011;39837;47.630;18.822;2024-03-08T01:41:12;20.42;;;13.73;;
53927;SDS011;39837;47.630;18.822;2024-03-08T01:43:57;17.58;;;14.50;;
53927;SDS011;39837;47.630;18.822;2024-03-08T01:46:43;16.80;;;14.13;;
53927;SDS011;39837;47.630;18.822;2024-03-08T01:52:12;18.77;;;14.63;;
53927;SDS011;39837;47.630;18.822;2024-03-08T01:54:59;20.77;;;15.10;;
53927;SDS011;39837;47.630;18.822;2024-03-08T01:57:44;19.88;;;15.93;;
53927;SDS011;39837;47.630;18.822;2024-03-08T02:00:28;31.20;;;17.45;;
53927;SDS011;39837;47.630;18.822;2024-03-08T02:03:13;30.70;;;19.35;;
53927;SDS011;39837;47.630;18.822;2024-03-08T02:05:59;32.38;;;24.25;;
53927;SDS011;39837;47.630;18.822;2024-03-08T02:08:44;39.08;;;23.00;;
53927;SDS011;39837;47.630;18.822;2024-03-08T02:11:28;43.22;;;26.00;;
53927;SDS011;39837;47.630;18.822;2024-03-08T02:14:12;52.15;;;28.80;;
53927;SDS011;39837;47.630;18.822;2024-03-08T02:16:59;44.92;;;30.83;;
53927;SDS011;39837;47.630;18.822;2024-03-08T02:19:44;47.85;;;29.52;;
53927;SDS011;39837;47.630;18.822;2024-03-08T02:22:28;46.00;;;29.63;;
53927;SDS011;39837;47.630;18.822;2024-03-08T02:25:12;63.13;;;33.45;;
53927;SDS011;39837;47.630;18.822;2024-03-08T02:27:56;49.67;;;31.38;;
53927;SDS011;39837;47.630;18.822;2024-03-08T02:30:40;53.50;;;30.85;;
53927;SDS011;39837;47.630;18.822;2024-03-08T02:33:24;49.38;;;30.75;;
53927;SDS011;39837;47.630;18.822;2024-03-08T02:36:10;50.33;;;31.48;;
53927;SDS011;39837;47.630;18.822;2024-03-08T02:38:54;55.10;;;31.52;;
53927;SDS011;39837;47.630;18.822;2024-03-08T02:41:39;53.92;;;31.65;;
53927;SDS011;39837;47.630;18.822;2024-03-08T02:44:23;59.72;;;31.13;;
53927;SDS011;39837;47.630;18.822;2024-03-08T02:47:07;57.20;;;31.67;;
53927;SDS011;39837;47.630;18.822;2024-03-08T02:49:51;59.17;;;32.45;;
53927;SDS011;39837;47.630;18.822;2024-03-08T02:52:35;56.58;;;33.03;;
53927;SDS011;39837;47.630;18.822;2024-03-08T02:55:19;61.45;;;32.85;;
53927;SDS011;39837;47.630;18.822;2024-03-08T02:58:04;55.03;;;30.95;;
53927;SDS011;39837;47.630;18.822;2024-03-08T03:00:48;61.80;;;33.45;;
53927;SDS011;39837;47.630;18.822;2024-03-08T03:03:33;60.72;;;32.83;;
53927;SDS011;39837;47.630;18.822;2024-03-08T03:06:17;57.70;;;32.30;;
53927;SDS011;39837;47.630;18.822;2024-03-08T03:09:04;51.10;;;31.50;;
53927;SDS011;39837;47.630;18.822;2024-03-08T03:11:50;58.40;;;33.78;;
53927;SDS011;39837;47.630;18.822;2024-03-08T03:14:37;56.67;;;33.80;;
53927;SDS011;39837;47.630;18.822;2024-03-08T03:17:24;65.43;;;33.53;;
53927;SDS011;39837;47.630;18.822;2024-03-08T03:20:08;53.35;;;33.85;;
53927;SDS011;39837;47.630;18.822;2024-03-08T03:22:57;55.92;;;33.60;;
53927;SDS011;39837;47.630;18.822;2024-03-08T03:25:44;60.78;;;33.33;;
53927;SDS011;39837;47.630;18.822;2024-03-08T03:28:29;56.60;;;33.72;;
53927;SDS011;39837;47.630;18.822;2024-03-08T03:31:15;64.38;;;35.40;;
53927;SDS011;39837;47.630;18.822;2024-03-08T03:34:01;62.53;;;34.92;;
53927;SDS011;39837;47.630;18.822;2024-03-08T03:36:48;66.13;;;34.85;;
53927;SDS011;39837;47.630;18.822;2024-03-08T03:39:32;58.70;;;34.47;;
53927;SDS011;39837;47.630;18.822;2024-03-08T03:42:18;62.55;;;33.25;;
53927;SDS011;39837;47.630;18.822;2024-03-08T03:45:03;61.95;;;34.95;;
53927;SDS011;39837;47.630;18.822;2024-03-08T03:47:49;57.63;;;33.10;;
53927;SDS011;39837;47.630;18.822;2024-03-08T03:50:33;60.70;;;35.00;;
53927;SDS011;39837;47.630;18.822;2024-03-08T03:53:17;60.92;;;35.33;;
53927;SDS011;39837;47.630;18.822;2024-03-08T03:56:01;70.20;;;37.85;;
53927;SDS011;39837;47.630;18.822;2024-03-08T03:58:46;62.72;;;35.42;;
53927;SDS011;39837;47.630;18.822;2024-03-08T04:01:30;56.20;;;35.28;;
53927;SDS011;39837;47.630;18.822;2024-03-08T04:04:14;62.28;;;34.58;;
53927;SDS011;39837;47.630;18.822;2024-03-08T04:06:59;56.72;;;35.78;;
53927;SDS011;39837;47.630;18.822;2024-03-08T04:09:43;67.13;;;34.47;;
53927;SDS011;39837;47.630;18.822;2024-03-08T04:12:27;63.97;;;35.55;;
53927;SDS011;39837;47.630;18.822;2024-03-08T04:15:13;66.28;;;36.92;;
53927;SDS011;39837;47.630;18.822;2024-03-08T04:17:57;61.97;;;35.03;;
53927;SDS011;39837;47.630;18.822;2024-03-08T04:20:43;70.90;;;37.47;;
53927;SDS011;39837;47.630;18.822;2024-03-08T04:23:28;60.78;;;35.50;;
53927;SDS011;39837;47.630;18.822;2024-03-08T04:26:12;67.38;;;35.72;;
53927;SDS011;39837;47.630;18.822;2024-03-08T04:28:56;78.30;;;37.85;;
53927;SDS011;39837;47.630;18.822;2024-03-08T04:31:40;69.63;;;35.78;;
53927;SDS011;39837;47.630;18.822;2024-03-08T04:34:24;73.13;;;36.67;;
53927;SDS011;39837;47.630;18.822;2024-03-08T04:37:08;66.10;;;38.30;;
53927;SDS011;39837;47.630;18.822;2024-03-08T04:39:54;66.20;;;36.08;;
53927;SDS011;39837;47.630;18.822;2024-03-08T04:42:38;65.25;;;36.92;;
53927;SDS011;39837;47.630;18.822;2024-03-08T04:45:23;62.50;;;36.65;;
53927;SDS011;39837;47.630;18.822;2024-03-08T04:48:09;75.35;;;36.30;;
53927;SDS011;39837;47.630;18.822;2024-03-08T04:50:55;70.30;;;38.97;;
53927;SDS011;39837;47.630;18.822;2024-03-08T04:53:39;67.85;;;38.35;;
53927;SDS011;39837;47.630;18.822;2024-03-08T04:56:24;73.40;;;38.17;;
53927;SDS011;39837;47.630;18.822;2024-03-08T04:59:09;73.53;;;37.72;;
53927;SDS011;39837;47.630;18.822;2024-03-08T05:01:53;72.55;;;38.45;;
53927;SDS011;39837;47.630;18.822;2024-03-08T05:04:36;77.15;;;38.90;;
53927;SDS011;39837;47.630;18.822;2024-03-08T05:07:20;86.20;;;40.03;;
53927;SDS011;39837;47.630;18.822;2024-03-08T05:10:05;79.68;;;43.13;;
53927;SDS011;39837;47.630;18.822;2024-03-08T05:12:50;89.90;;;42.63;;
53927;SDS011;39837;47.630;18.822;2024-03-08T05:15:35;85.68;;;42.50;;
53927;SDS011;39837;47.630;18.822;2024-03-08T05:18:20;77.93;;;40.47;;
53927;SDS011;39837;47.630;18.822;2024-03-08T05:21:05;91.22;;;40.58;;
53927;SDS011;39837;47.630;18.822;2024-03-08T05:23:50;84.72;;;41.15;;
53927;SDS011;39837;47.630;18.822;2024-03-08T05:26:34;86.00;;;44.08;;
53927;SDS011;39837;47.630;18.822;2024-03-08T05:29:19;83.72;;;43.30;;
53927;SDS011;39837;47.630;18.822;2024-03-08T05:32:03;96.85;;;50.75;;
53927;SDS011;39837;47.630;18.822;2024-03-08T05:34:47;100.97;;;49.42;;
53927;SDS011;39837;47.630;18.822;2024-03-08T05:37:31;101.50;;;46.75;;
53927;SDS011;39837;47.630;18.822;2024-03-08T05:40:15;85.00;;;45.30;;
53927;SDS011;39837;47.630;18.822;2024-03-08T05:42:59;94.45;;;45.28;;
53927;SDS011;39837;47.630;18.822;2024-03-08T05:45:43;90.10;;;44.22;;
53927;SDS011;39837;47.630;18.822;2024-03-08T05:48:27;90.65;;;46.05;;
53927;SDS011;39837;47.630;18.822;2024-03-08T05:51:11;86.00;;;44.20;;
53927;SDS011;39837;47.630;18.822;2024-03-08T05:53:56;85.10;;;44.67;;
53927;SDS011;39837;47.630;18.822;2024-03-08T05:56:40;84.85;;;42.47;;
53927;SDS011;39837;47.630;18.822;2024-03-08T05:59:26;88.03;;;44.25;;
53927;SDS011;39837;47.630;18.822;2024-03-08T06:02:10;87.90;;;44.65;;
53927;SDS011;39837;47.630;18.822;2024-03-08T06:04:55;91.00;;;43.67;;
53927;SDS011;39837;47.630;18.822;2024-03-08T06:07:39;79.60;;;42.42;;
53927;SDS011;39837;47.630;18.822;2024-03-08T06:10:24;89.90;;;44.03;;
53927;SDS011;39837;47.630;18.822;2024-03-08T06:13:08;92.32;;;45.10;;
53927;SDS011;39837;47.630;18.822;2024-03-08T06:15:52;96.78;;;46.53;;
53927;SDS011;39837;47.630;18.822;2024-03-08T06:18:36;86.93;;;42.58;;
53927;SDS011;39837;47.630;18.822;2024-03-08T06:21:20;81.53;;;43.22;;
53927;SDS011;39837;47.630;18.822;2024-03-08T06:24:06;79.97;;;41.78;;
53927;SDS011;39837;47.630;18.822;2024-03-08T06:26:50;82.13;;;43.30;;
53927;SDS011;39837;47.630;18.822;2024-03-08T06:29:34;77.95;;;43.97;;
53927;SDS011;39837;47.630;18.822;2024-03-08T06:32:18;89.38;;;41.95;;
53927;SDS011;39837;47.630;18.822;2024-03-08T06:35:03;83.55;;;43.80;;
53927;SDS011;39837;47.630;18.822;2024-03-08T06:37:49;91.97;;;43.85;;
53927;SDS011;39837;47.630;18.822;2024-03-08T06:40:33;82.80;;;44.30;;
53927;SDS011;39837;47.630;18.822;2024-03-08T06:43:17;84.20;;;42.35;;
53927;SDS011;39837;47.630;18.822;2024-03-08T06:46:02;85.05;;;43.92;;
53927;SDS011;39837;47.630;18.822;2024-03-08T06:48:47;122.63;;;67.63;;
53927;SDS011;39837;47.630;18.822;2024-03-08T06:51:32;95.05;;;46.20;;
53927;SDS011;39837;47.630;18.822;2024-03-08T06:54:16;80.65;;;44.65;;
53927;SDS011;39837;47.630;18.822;2024-03-08T06:57:00;75.18;;;43.95;;
53927;SDS011;39837;47.630;18.822;2024-03-08T06:59:44;86.82;;;44.05;;
53927;SDS011;39837;47.630;18.822;2024-03-08T07:02:28;79.97;;;40.72;;
53927;SDS011;39837;47.630;18.822;2024-03-08T07:05:12;76.80;;;42.88;;
53927;SDS011;39837;47.630;18.822;2024-03-08T07:07:56;88.57;;;42.72;;
53927;SDS011;39837;47.630;18.822;2024-03-08T07:10:40;87.68;;;43.25;;
53927;SDS011;39837;47.630;18.822;2024-03-08T07:13:29;91.72;;;43.80;;
53927;SDS011;39837;47.630;18.822;2024-03-08T07:16:13;101.97;;;44.13;;
53927;SDS011;39837;47.630;18.822;2024-03-08T07:18:58;79.25;;;44.63;;
53927;SDS011;39837;47.630;18.822;2024-03-08T07:21:43;91.13;;;43.15;;
53927;SDS011;39837;47.630;18.822;2024-03-08T07:24:28;101.70;;;44.63;;
53927;SDS011;39837;47.630;18.822;2024-03-08T07:27:23;96.45;;;46.97;;
53927;SDS011;39837;47.630;18.822;2024-03-08T07:30:08;89.55;;;44.75;;
53927;SDS011;39837;47.630;18.822;2024-03-08T07:32:54;103.40;;;46.67;;
53927;SDS011;39837;47.630;18.822;2024-03-08T07:35:38;292.02;;;163.60;;
53927;SDS011;39837;47.630;18.822;2024-03-08T07:38:22;124.20;;;59.10;;
53927;SDS011;39837;47.630;18.822;2024-03-08T07:41:07;94.45;;;45.85;;
53927;SDS011;39837;47.630;18.822;2024-03-08T07:43:51;92.32;;;46.60;;
53927;SDS011;39837;47.630;18.822;2024-03-08T07:46:35;99.97;;;45.90;;
53927;SDS011;39837;47.630;18.822;2024-03-08T07:49:20;88.13;;;43.50;;
53927;SDS011;39837;47.630;18.822;2024-03-08T07:52:05;90.70;;;45.53;;
53927;SDS011;39837;47.630;18.822;2024-03-08T07:54:50;89.40;;;46.05;;
53927;SDS011;39837;47.630;18.822;2024-03-08T07:57:34;91.70;;;45.15;;
53927;SDS011;39837;47.630;18.822;2024-03-08T08:00:18;89.20;;;44.20;;
53927;SDS011;39837;47.630;18.822;2024-03-08T08:03:03;87.82;;;43.67;;
53927;SDS011;39837;47.630;18.822;2024-03-08T08:08:32;91.00;;;47.10;;
53927;SDS011;39837;47.630;18.822;2024-03-08T08:11:16;93.43;;;46.13;;
53927;SDS011;39837;47.630;18.822;2024-03-08T08:14:01;92.28;;;47.60;;
53927;SDS011;39837;47.630;18.822;2024-03-08T08:16:45;106.85;;;50.15;;
53927;SDS011;39837;47.630;18.822;2024-03-08T08:19:29;89.82;;;48.22;;
53927;SDS011;39837;47.630;18.822;2024-03-08T08:22:13;95.55;;;47.20;;
53927;SDS011;39837;47.630;18.822;2024-03-08T08:24:57;91.90;;;46.10;;
53927;SDS011;39837;47.630;18.822;2024-03-08T08:27:41;88.68;;;47.58;;
53927;SDS011;39837;47.630;18.822;2024-03-08T08:30:28;92.80;;;49.53;;
53927;SDS011;39837;47.630;18.822;2024-03-08T08:33:13;87.47;;;48.15;;
53927;SDS011;39837;47.630;18.822;2024-03-08T08:35:57;90.88;;;47.95;;
53927;SDS011;39837;47.630;18.822;2024-03-08T08:38:42;90.75;;;47.35;;
53927;SDS011;39837;47.630;18.822;2024-03-08T08:41:26;82.32;;;46.30;;
53927;SDS011;39837;47.630;18.822;2024-03-08T08:44:10;113.25;;;62.50;;
53927;SDS011;39837;47.630;18.822;2024-03-08T08:46:56;100.00;;;54.42;;
53927;SDS011;39837;47.630;18.822;2024-03-08T08:49:40;96.78;;;49.78;;
53927;SDS011;39837;47.630;18.822;2024-03-08T08:52:24;107.30;;;47.25;;
53927;SDS011;39837;47.630;18.822;2024-03-08T08:55:08;108.85;;;50.13;;
53927;SDS011;39837;47.630;18.822;2024-03-08T08:57:53;110.05;;;53.30;;
53927;SDS011;39837;47.630;18.822;2024-03-08T09:00:37;101.15;;;46.58;;
53927;SDS011;39837;47.630;18.822;2024-03-08T09:03:21;103.10;;;50.70;;
53927;SDS011;39837;47.630;18.822;2024-03-08T09:06:07;97.38;;;46.63;;
53927;SDS011;39837;47.630;18.822;2024-03-08T09:08:54;96.35;;;48.30;;
53927;SDS011;39837;47.630;18.822;2024-03-08T09:11:38;103.78;;;47.25;;
53927;SDS011;39837;47.630;18.822;2024-03-08T09:14:25;100.35;;;49.15;;
53927;SDS011;39837;47.630;18.822;2024-03-08T09:17:10;96.38;;;48.40;;
53927;SDS011;39837;47.630;18.822;2024-03-08T09:19:55;98.53;;;48.60;;
53927;SDS011;39837;47.630;18.822;2024-03-08T09:22:44;93.53;;;46.97;;
53927;SDS011;39837;47.630;18.822;2024-03-08T09:25:29;96.85;;;49.63;;
53927;SDS011;39837;47.630;18.822;2024-03-08T09:28:13;104.97;;;51.50;;
53927;SDS011;39837;47.630;18.822;2024-03-08T09:30:57;110.32;;;49.38;;
53927;SDS011;39837;47.630;18.822;2024-03-08T09:33:42;98.18;;;46.92;;
53927;SDS011;39837;47.630;18.822;2024-03-08T09:36:26;101.25;;;50.38;;
53927;SDS011;39837;47.630;18.822;2024-03-08T09:39:11;96.03;;;47.22;;
53927;SDS011;39837;47.630;18.822;2024-03-08T09:42:00;109.75;;;50.03;;
53927;SDS011;39837;47.630;18.822;2024-03-08T09:44:45;100.85;;;50.50;;
53927;SDS011;39837;47.630;18.822;2024-03-08T09:47:29;113.32;;;47.90;;
53927;SDS011;39837;47.630;18.822;2024-03-08T09:50:17;90.00;;;47.13;;
53927;SDS011;39837;47.630;18.822;2024-03-08T09:53:03;94.78;;;47.17;;
53927;SDS011;39837;47.630;18.822;2024-03-08T09:55:47;92.97;;;49.97;;
53927;SDS011;39837;47.630;18.822;2024-03-08T09:58:33;97.10;;;49.55;;
53927;SDS011;39837;47.630;18.822;2024-03-08T10:01:16;91.82;;;47.67;;
53927;SDS011;39837;47.630;18.822;2024-03-08T10:04:02;113.20;;;48.95;;
53927;SDS011;39837;47.630;18.822;2024-03-08T10:06:49;109.25;;;47.20;;
53927;SDS011;39837;47.630;18.822;2024-03-08T10:09:33;106.50;;;48.63;;
53927;SDS011;39837;47.630;18.822;2024-03-08T10:12:17;95.63;;;44.08;;
53927;SDS011;39837;47.630;18.822;2024-03-08T10:15:02;93.00;;;46.08;;
53927;SDS011;39837;47.630;18.822;2024-03-08T10:17:49;96.22;;;46.78;;
53927;SDS011;39837;47.630;18.822;2024-03-08T10:20:33;82.57;;;46.28;;
53927;SDS011;39837;47.630;18.822;2024-03-08T10:23:17;108.75;;;47.10;;
53927;SDS011;39837;47.630;18.822;2024-03-08T10:26:11;92.95;;;50.30;;
53927;SDS011;39837;47.630;18.822;2024-03-08T10:28:58;86.75;;;45.63;;
53927;SDS011;39837;47.630;18.822;2024-03-08T10:31:43;95.93;;;45.30;;
53927;SDS011;39837;47.630;18.822;2024-03-08T10:34:30;93.55;;;45.95;;
53927;SDS011;39837;47.630;18.822;2024-03-08T10:37:14;95.00;;;46.75;;
53927;SDS011;39837;47.630;18.822;2024-03-08T10:40:02;79.65;;;40.35;;
53927;SDS011;39837;47.630;18.822;2024-03-08T10:42:59;73.60;;;38.22;;
53927;SDS011;39837;47.630;18.822;2024-03-08T10:45:43;71.88;;;37.85;;
53927;SDS011;39837;47.630;18.822;2024-03-08T10:48:31;79.78;;;38.20;;
53927;SDS011;39837;47.630;18.822;2024-03-08T10:51:16;86.63;;;40.42;;
53927;SDS011;39837;47.630;18.822;2024-03-08T10:54:01;73.40;;;37.45;;
53927;SDS011;39837;47.630;18.822;2024-03-08T10:56:47;73.82;;;39.40;;
53927;SDS011;39837;47.630;18.822;2024-03-08T10:59:32;71.03;;;38.80;;
53927;SDS011;39837;47.630;18.822;2024-03-08T11:02:17;71.90;;;35.33;;
53927;SDS011;39837;47.630;18.822;2024-03-08T11:05:04;66.20;;;34.80;;
53927;SDS011;39837;47.630;18.822;2024-03-08T11:07:49;69.60;;;33.85;;
53927;SDS011;39837;47.630;18.822;2024-03-08T11:10:33;75.88;;;35.10;;
53927;SDS011;39837;47.630;18.822;2024-03-08T11:22:01;56.22;;;32.05;;
53927;SDS011;39837;47.630;18.822;2024-03-08T11:24:46;56.97;;;31.42;;
53927;SDS011;39837;47.630;18.822;2024-03-08T11:27:30;54.65;;;32.25;;
53927;SDS011;39837;47.630;18.822;2024-03-08T11:30:15;68.15;;;34.47;;
53927;SDS011;39837;47.630;18.822;2024-03-08T11:33:11;76.75;;;33.92;;
53927;SDS011;39837;47.630;18.822;2024-03-08T11:39:19;57.97;;;32.35;;
53927;SDS011;39837;47.630;18.822;2024-03-08T11:42:03;59.70;;;34.50;;
53927;SDS011;39837;47.630;18.822;2024-03-08T11:44:47;58.65;;;34.45;;
53927;SDS011;39837;47.630;18.822;2024-03-08T11:47:31;55.45;;;31.48;;
53927;SDS011;39837;47.630;18.822;2024-03-08T11:50:15;60.45;;;32.65;;
53927;SDS011;39837;47.630;18.822;2024-03-08T11:53:00;58.85;;;31.95;;
53927;SDS011;39837;47.630;18.822;2024-03-08T11:55:46;63.25;;;32.95;;
53927;SDS011;39837;47.630;18.822;2024-03-08T12:01:16;67.38;;;36.00;;
53927;SDS011;39837;47.630;18.822;2024-03-08T12:04:00;74.28;;;34.00;;
53927;SDS011;39837;47.630;18.822;2024-03-08T12:06:45;71.63;;;33.63;;
53927;SDS011;39837;47.630;18.822;2024-03-08T12:09:31;65.70;;;35.97;;
53927;SDS011;39837;47.630;18.822;2024-03-08T12:12:15;62.70;;;36.20;;
53927;SDS011;39837;47.630;18.822;2024-03-08T12:14:59;207.52;;;121.60;;
53927;SDS011;39837;47.630;18.822;2024-03-08T12:17:44;64.43;;;36.38;;
53927;SDS011;39837;47.630;18.822;2024-03-08T12:20:31;60.80;;;36.15;;
53927;SDS011;39837;47.630;18.822;2024-03-08T12:23:15;101.03;;;37.45;;
53927;SDS011;39837;47.630;18.822;2024-03-08T12:26:16;69.63;;;34.53;;
53927;SDS011;39837;47.630;18.822;2024-03-08T12:32:11;68.78;;;36.70;;
53927;SDS011;39837;47.630;18.822;2024-03-08T12:34:55;74.80;;;36.63;;
53927;SDS011;39837;47.630;18.822;2024-03-08T12:37:39;77.10;;;36.85;;
53927;SDS011;39837;47.630;18.822;2024-03-08T12:40:27;67.13;;;35.38;;
53927;SDS011;39837;47.630;18.822;2024-03-08T12:43:15;70.57;;;37.70;;
53927;SDS011;39837;47.630;18.822;2024-03-08T12:45:59;73.60;;;38.67;;
53927;SDS011;39837;47.630;18.822;2024-03-08T12:48:44;74.00;;;36.20;;
53927;SDS011;39837;47.630;18.822;2024-03-08T12:51:30;68.60;;;37.45;;
53927;SDS011;39837;47.630;18.822;2024-03-08T12:54:14;82.32;;;39.90;;
53927;SDS011;39837;47.630;18.822;2024-03-08T12:56:58;78.03;;;38.33;;
53927;SDS011;39837;47.630;18.822;2024-03-08T12:59:43;84.53;;;38.67;;
53927;SDS011;39837;47.630;18.822;2024-03-08T13:02:28;65.63;;;38.05;;
53927;SDS011;39837;47.630;18.822;2024-03-08T13:05:12;78.88;;;38.22;;
53927;SDS011;39837;47.630;18.822;2024-03-08T13:07:57;86.40;;;39.00;;
53927;SDS011;39837;47.630;18.822;2024-03-08T13:10:41;64.38;;;36.38;;
53927;SDS011;39837;47.630;18.822;2024-03-08T13:13:28;71.80;;;39.05;;
53927;SDS011;39837;47.630;18.822;2024-03-08T13:16:13;98.05;;;44.33;;
53927;SDS011;39837;47.630;18.822;2024-03-08T13:19:00;78.18;;;40.97;;
53927;SDS011;39837;47.630;18.822;2024-03-08T13:21:45;103.15;;;44.00;;
53927;SDS011;39837;47.630;18.822;2024-03-08T13:24:32;76.43;;;39.53;;
53927;SDS011;39837;47.630;18.822;2024-03-08T13:27:17;72.18;;;43.63;;
53927;SDS011;39837;47.630;18.822;2024-03-08T13:30:05;78.45;;;41.72;;
53927;SDS011;39837;47.630;18.822;2024-03-08T13:32:54;89.63;;;43.03;;
53927;SDS011;39837;47.630;18.822;2024-03-08T13:35:38;83.55;;;39.72;;
53927;SDS011;39837;47.630;18.822;2024-03-08T13:38:24;92.80;;;40.67;;
53927;SDS011;39837;47.630;18.822;2024-03-08T13:41:12;69.45;;;39.80;;
53927;SDS011;39837;47.630;18.822;2024-03-08T13:43:58;70.05;;;39.08;;
53927;SDS011;39837;47.630;18.822;2024-03-08T13:46:42;79.45;;;39.45;;
53927;SDS011;39837;47.630;18.822;2024-03-08T13:49:26;73.95;;;37.45;;
53927;SDS011;39837;47.630;18.822;2024-03-08T13:52:10;82.75;;;41.97;;
53927;SDS011;39837;47.630;18.822;2024-03-08T13:54:58;82.82;;;42.10;;
53927;SDS011;39837;47.630;18.822;2024-03-08T13:57:42;75.68;;;41.17;;
53927;SDS011;39837;47.630;18.822;2024-03-08T14:00:26;87.10;;;44.08;;
53927;SDS011;39837;47.630;18.822;2024-03-08T14:03:17;89.10;;;41.85;;
53927;SDS011;39837;47.630;18.822;2024-03-08T14:06:01;80.30;;;40.53;;
53927;SDS011;39837;47.630;18.822;2024-03-08T14:08:47;80.53;;;40.45;;
53927;SDS011;39837;47.630;18.822;2024-03-08T14:11:31;71.20;;;39.72;;
53927;SDS011;39837;47.630;18.822;2024-03-08T14:14:14;82.32;;;40.95;;
53927;SDS011;39837;47.630;18.822;2024-03-08T14:16:58;80.22;;;41.10;;
53927;SDS011;39837;47.630;18.822;2024-03-08T14:19:43;87.32;;;44.53;;
53927;SDS011;39837;47.630;18.822;2024-03-08T14:22:27;97.90;;;40.72;;
53927;SDS011;39837;47.630;18.822;2024-03-08T14:25:11;109.63;;;39.72;;
53927;SDS011;39837;47.630;18.822;2024-03-08T14:28:00;80.75;;;38.42;;
53927;SDS011;39837;47.630;18.822;2024-03-08T14:30:51;87.97;;;40.95;;
53927;SDS011;39837;47.630;18.822;2024-03-08T14:33:36;72.05;;;39.28;;
53927;SDS011;39837;47.630;18.822;2024-03-08T14:36:21;71.18;;;37.80;;
53927;SDS011;39837;47.630;18.822;2024-03-08T14:39:06;79.43;;;40.90;;
53927;SDS011;39837;47.630;18.822;2024-03-08T14:41:51;86.47;;;37.47;;
53927;SDS011;39837;47.630;18.822;2024-03-08T14:44:38;68.20;;;38.42;;
53927;SDS011;39837;47.630;18.822;2024-03-08T14:47:22;74.45;;;38.13;;
53927;SDS011;39837;47.630;18.822;2024-03-08T14:50:06;100.15;;;41.50;;
53927;SDS011;39837;47.630;18.822;2024-03-08T14:52:51;79.63;;;42.10;;
53927;SDS011;39837;47.630;18.822;2024-03-08T14:55:35;208.15;;;99.28;;
53927;SDS011;39837;47.630;18.822;2024-03-08T14:58:18;86.95;;;43.60;;
53927;SDS011;39837;47.630;18.822;2024-03-08T15:01:05;79.38;;;41.80;;
53927;SDS011;39837;47.630;18.822;2024-03-08T15:03:51;79.40;;;40.80;;
53927;SDS011;39837;47.630;18.822;2024-03-08T15:06:35;85.75;;;42.22;;
53927;SDS011;39837;47.630;18.822;2024-03-08T15:09:20;81.20;;;45.65;;
53927;SDS011;39837;47.630;18.822;2024-03-08T15:12:08;86.53;;;42.17;;
53927;SDS011;39837;47.630;18.822;2024-03-08T15:14:53;98.65;;;42.90;;
53927;SDS011;39837;47.630;18.822;2024-03-08T15:17:38;92.57;;;43.25;;
53927;SDS011;39837;47.630;18.822;2024-03-08T15:20:23;85.32;;;44.65;;
53927;SDS011;39837;47.630;18.822;2024-03-08T15:23:13;102.60;;;47.88;;
53927;SDS011;39837;47.630;18.822;2024-03-08T15:25:57;76.30;;;44.22;;
53927;SDS011;39837;47.630;18.822;2024-03-08T15:28:42;87.25;;;43.72;;
53927;SDS011;39837;47.630;18.822;2024-03-08T15:31:28;81.85;;;44.85;;
53927;SDS011;39837;47.630;18.822;2024-03-08T15:34:14;75.22;;;46.05;;
53927;SDS011;39837;47.630;18.822;2024-03-08T15:37:00;82.40;;;45.10;;
53927;SDS011;39837;47.630;18.822;2024-03-08T15:39:46;87.57;;;49.17;;
53927;SDS011;39837;47.630;18.822;2024-03-08T15:42:30;133.07;;;80.00;;
53927;SDS011;39837;47.630;18.822;2024-03-08T15:45:14;77.03;;;44.85;;
53927;SDS011;39837;47.630;18.822;2024-03-08T15:47:59;86.60;;;42.10;;
53927;SDS011;39837;47.630;18.822;2024-03-08T15:50:48;79.57;;;40.15;;
53927;SDS011;39837;47.630;18.822;2024-03-08T15:53:33;77.47;;;41.95;;
53927;SDS011;39837;47.630;18.822;2024-03-08T15:56:18;82.85;;;43.72;;
53927;SDS011;39837;47.630;18.822;2024-03-08T15:59:05;79.43;;;44.45;;
53927;SDS011;39837;47.630;18.822;2024-03-08T16:01:50;74.85;;;44.13;;
53927;SDS011;39837;47.630;18.822;2024-03-08T16:04:34;74.93;;;41.97;;
53927;SDS011;39837;47.630;18.822;2024-03-08T16:07:18;80.97;;;45.58;;
53927;SDS011;39837;47.630;18.822;2024-03-08T16:10:03;74.75;;;40.15;;
53927;SDS011;39837;47.630;18.822;2024-03-08T16:12:49;71.90;;;44.10;;
53927;SDS011;39837;47.630;18.822;2024-03-08T16:15:34;101.45;;;49.88;;
53927;SDS011;39837;47.630;18.822;2024-03-08T16:18:18;85.57;;;52.67;;